Terminal Aerodrome Forecast
Issued by NWS Milwaukee/Sullivan, WI

Home | Current Version | Previous Version | Text Only | Print | Product List | Glossary On
Versions: 1 2 3 4 5 6 7 8 9 10 11 12 13 14 15 16 17 18 19 20 21 22 23 24 25 26 27 28 29
000
FTUS43 KMKX 232109 AAA
TAFMKE
TAF AMD
KMKE 232109Z 2321/2424 26012G20KT P6SM BKN016
     FM232300 27010KT P6SM BKN022
     FM240200 29007KT P6SM SCT025
     FM240600 03004KT P6SM FEW030 SCT250
     FM241600 08011KT P6SM BKN040
     FM242100 09014KT P6SM VCSH OVC030=

USA.gov is the U.S. government's official web portal to all federal, state and local government web resources and services.